Time;durP1;ratioP1;P1;durP2;ratioP2;P2;SDS_P1;SDS_P2;PMS_P1;PMS_P2;Temp;Humidity;BMP_temperature;BMP_pressure;BME280_temperature;BME280_humidity;BME280_pressure;Samples;Min_cycle;Max_cycle;Signal;HPM_P1;HPM_P2
2022/01/06 00:00:39;;;;;;;23.60;19.17;;;;;;;;;;5003344;28;20638;-88
2022/01/06 00:03:10;;;;;;;22.65;20.17;;;;;;;;;;5003056;28;20662;-88
2022/01/06 00:05:39;;;;;;;23.30;20.90;;;;;;;;;;5001285;28;20235;-88
2022/01/06 00:08:07;;;;;;;30.75;20.85;;;;;;;;;;5001645;28;20215;-89
2022/01/06 00:10:35;;;;;;;21.67;19.63;;;;;;;;;;5003817;28;20219;-88
2022/01/06 00:13:11;;;;;;;40.15;31.55;;;;;;;;;;4985385;28;20203;-89
2022/01/06 00:15:59;;;;;;;27.92;20.05;;;;;;;;;;5003764;28;20212;-88
2022/01/06 00:18:40;;;;;;;20.85;18.83;;;;;;;;;;5002085;28;20234;-87
2022/01/06 00:23:54;;;;;;;26.67;20.10;;;;;;;;;;5002986;28;20229;-89
2022/01/06 00:26:22;;;;;;;22.55;19.40;;;;;;;;;;5001950;28;20215;-88
2022/01/06 00:28:50;;;;;;;20.60;18.58;;;;;;;;;;5000848;28;20199;-88
2022/01/06 00:31:23;;;;;;;23.98;20.20;;;;;;;;;;5001139;28;20211;-88
2022/01/06 00:33:51;;;;;;;20.52;18.63;;;;;;;;;;5001408;28;20203;-88
2022/01/06 00:36:18;;;;;;;21.02;18.80;;;;;;;;;;5001160;28;20203;-88
2022/01/06 00:38:46;;;;;;;22.48;19.77;;;;;;;;;;4999087;28;20227;-88
2022/01/06 00:41:13;;;;;;;20.48;18.60;;;;;;;;;;5000774;28;20211;-88
2022/01/06 00:43:47;;;;;;;20.90;18.60;;;;;;;;;;4999701;28;20299;-87
2022/01/06 00:46:15;;;;;;;27.48;21.25;;;;;;;;;;4984600;28;20206;-89
2022/01/06 00:48:45;;;;;;;20.02;18.63;;;;;;;;;;4987007;28;20249;-89
2022/01/06 00:51:13;;;;;;;21.33;19.60;;;;;;;;;;5000660;28;20199;-88
2022/01/06 00:53:40;;;;;;;21.55;19.75;;;;;;;;;;5000372;28;20223;-89
2022/01/06 00:56:08;;;;;;;26.08;20.48;;;;;;;;;;5000911;28;20204;-88
2022/01/06 00:58:36;;;;;;;25.40;20.40;;;;;;;;;;4997314;28;20259;-89
2022/01/06 01:01:05;;;;;;;19.90;18.35;;;;;;;;;;4999897;28;20236;-89
2022/01/06 01:03:33;;;;;;;24.02;19.45;;;;;;;;;;4999641;28;20576;-89
2022/01/06 01:06:03;;;;;;;20.58;18.85;;;;;;;;;;5000464;28;20233;-89
2022/01/06 01:08:32;;;;;;;21.75;19.85;;;;;;;;;;4999253;28;20258;-89
2022/01/06 01:11:00;;;;;;;21.77;19.48;;;;;;;;;;4997613;28;20204;-89
2022/01/06 01:13:32;;;;;;;21.23;19.15;;;;;;;;;;4999950;28;20222;-88
2022/01/06 01:16:09;;;;;;;25.65;20.52;;;;;;;;;;4998010;28;20227;-89
2022/01/06 01:18:39;;;;;;;22.00;19.67;;;;;;;;;;4999095;28;20715;-89
2022/01/06 01:21:11;;;;;;;20.13;18.73;;;;;;;;;;4999235;28;20187;-88
2022/01/06 01:23:38;;;;;;;26.67;18.95;;;;;;;;;;4999945;28;20227;-89
2022/01/06 01:26:06;;;;;;;21.63;18.70;;;;;;;;;;4980669;28;20299;-89
2022/01/06 01:28:43;;;;;;;20.27;18.65;;;;;;;;;;4999399;28;20207;-88
2022/01/06 01:31:24;;;;;;;21.23;19.27;;;;;;;;;;5000177;28;20208;-88
2022/01/06 01:33:57;;;;;;;21.20;19.33;;;;;;;;;;4999132;28;20242;-88
2022/01/06 01:36:26;;;;;;;21.85;19.88;;;;;;;;;;5002926;28;20211;-89
2022/01/06 01:39:04;;;;;;;21.35;19.23;;;;;;;;;;5004352;28;20223;-88
2022/01/06 01:41:36;;;;;;;45.08;30.80;;;;;;;;;;5005890;28;20680;-88
2022/01/06 01:44:05;;;;;;;21.67;19.73;;;;;;;;;;5004206;28;20196;-88
2022/01/06 01:46:42;;;;;;;20.88;18.83;;;;;;;;;;4988718;28;20212;-88
2022/01/06 01:49:27;;;;;;;21.83;19.55;;;;;;;;;;5002389;28;20562;-88
2022/01/06 01:51:56;;;;;;;22.60;20.58;;;;;;;;;;5003147;28;20744;-88
2022/01/06 01:54:28;;;;;;;21.58;19.48;;;;;;;;;;5002841;28;20202;-88
2022/01/06 01:56:55;;;;;;;21.65;19.70;;;;;;;;;;5002649;28;20195;-88
2022/01/06 01:59:32;;;;;;;21.58;19.42;;;;;;;;;;5006766;28;20307;-87
2022/01/06 02:01:59;;;;;;;20.17;18.52;;;;;;;;;;5008337;28;20192;-88
2022/01/06 02:04:26;;;;;;;21.75;19.60;;;;;;;;;;5007256;28;20239;-88
2022/01/06 02:06:55;;;;;;;22.23;19.05;;;;;;;;;;4989988;28;20204;-88
2022/01/06 02:09:23;;;;;;;24.60;18.80;;;;;;;;;;5002734;28;20242;-89
2022/01/06 02:11:50;;;;;;;19.13;18.02;;;;;;;;;;5001902;28;20268;-89
2022/01/06 02:14:17;;;;;;;21.90;19.58;;;;;;;;;;4999664;28;20197;-89
2022/01/06 02:16:45;;;;;;;20.80;19.13;;;;;;;;;;4997838;28;20206;-89
2022/01/06 02:19:12;;;;;;;20.65;19.13;;;;;;;;;;4997625;28;20225;-88
2022/01/06 02:21:42;;;;;;;19.85;18.10;;;;;;;;;;4984316;28;20187;-89
2022/01/06 02:24:10;;;;;;;21.27;19.35;;;;;;;;;;5003304;28;20231;-88
2022/01/06 02:26:40;;;;;;;18.77;17.48;;;;;;;;;;5002851;28;20207;-89
2022/01/06 02:29:11;;;;;;;19.95;18.65;;;;;;;;;;5005641;28;20212;-88
2022/01/06 02:31:46;;;;;;;19.38;18.08;;;;;;;;;;5005687;28;20187;-88
2022/01/06 02:34:15;;;;;;;19.10;17.65;;;;;;;;;;5007385;28;20254;-88
2022/01/06 02:36:46;;;;;;;19.25;17.90;;;;;;;;;;5007290;28;20652;-89
2022/01/06 02:39:15;;;;;;;19.63;18.10;;;;;;;;;;5007288;28;20286;-88
2022/01/06 02:41:48;;;;;;;19.60;18.08;;;;;;;;;;5007161;28;20216;-89
2022/01/06 02:44:16;;;;;;;20.30;18.75;;;;;;;;;;5004184;28;20629;-87
2022/01/06 02:46:47;;;;;;;20.65;18.50;;;;;;;;;;5006395;28;20190;-89
2022/01/06 02:49:15;;;;;;;19.40;18.00;;;;;;;;;;5005109;28;20633;-89
2022/01/06 02:51:44;;;;;;;20.98;19.48;;;;;;;;;;5006505;28;20560;-89
2022/01/06 02:54:11;;;;;;;20.48;19.00;;;;;;;;;;5006027;28;20204;-89
2022/01/06 02:56:42;;;;;;;20.42;18.65;;;;;;;;;;5005483;28;20195;-89
2022/01/06 02:59:13;;;;;;;19.75;18.05;;;;;;;;;;4988391;28;20241;-88
2022/01/06 03:01:42;;;;;;;20.13;18.33;;;;;;;;;;5004900;28;20288;-89
2022/01/06 03:04:12;;;;;;;21.08;19.35;;;;;;;;;;5001970;28;20573;-88
2022/01/06 03:06:40;;;;;;;20.85;19.10;;;;;;;;;;5002367;28;20259;-89
2022/01/06 03:09:11;;;;;;;21.20;19.38;;;;;;;;;;4999900;28;20193;-88
2022/01/06 03:11:42;;;;;;;23.60;19.90;;;;;;;;;;5002726;28;20215;-89
2022/01/06 03:14:10;;;;;;;21.17;19.48;;;;;;;;;;5002497;28;20197;-88
2022/01/06 03:16:39;;;;;;;21.42;19.38;;;;;;;;;;5001282;28;20192;-89
2022/01/06 03:19:07;;;;;;;21.48;19.83;;;;;;;;;;4982981;28;20239;-88
2022/01/06 03:21:36;;;;;;;21.17;19.38;;;;;;;;;;5000356;28;20561;-88
2022/01/06 03:24:04;;;;;;;21.45;19.90;;;;;;;;;;4998478;28;20239;-88
2022/01/06 03:26:33;;;;;;;21.85;19.73;;;;;;;;;;4999384;28;20262;-88
2022/01/06 03:29:00;;;;;;;20.02;18.83;;;;;;;;;;5000503;28;20221;-89
2022/01/06 03:31:28;;;;;;;21.45;19.90;;;;;;;;;;5000369;28;20653;-89
2022/01/06 03:33:56;;;;;;;21.30;19.63;;;;;;;;;;5000424;28;20204;-89
2022/01/06 03:36:23;;;;;;;22.77;20.67;;;;;;;;;;4999517;28;20200;-88
2022/01/06 03:38:51;;;;;;;21.10;19.60;;;;;;;;;;4998514;28;20214;-89
2022/01/06 03:41:18;;;;;;;22.08;19.77;;;;;;;;;;4998843;28;20195;-89
2022/01/06 03:43:47;;;;;;;20.52;19.20;;;;;;;;;;4999474;28;20247;-89
2022/01/06 03:46:15;;;;;;;20.85;18.88;;;;;;;;;;4982302;28;20209;-87
2022/01/06 03:48:45;;;;;;;20.50;18.90;;;;;;;;;;4998899;28;20555;-89
2022/01/06 03:51:13;;;;;;;20.73;19.27;;;;;;;;;;5001452;28;20248;-89
2022/01/06 03:53:40;;;;;;;19.92;18.50;;;;;;;;;;5000501;28;20195;-88
2022/01/06 03:56:08;;;;;;;21.42;19.83;;;;;;;;;;4998536;28;20188;-89
2022/01/06 03:58:39;;;;;;;20.02;18.33;;;;;;;;;;4998427;28;20235;-88
2022/01/06 04:01:13;;;;;;;20.88;19.17;;;;;;;;;;5001438;28;20202;-88
2022/01/06 04:03:41;;;;;;;20.73;19.13;;;;;;;;;;5000155;28;20237;-88
2022/01/06 04:06:10;;;;;;;21.08;19.77;;;;;;;;;;4999715;28;20248;-88
2022/01/06 04:08:37;;;;;;;22.25;20.08;;;;;;;;;;4999754;28;20294;-88
2022/01/06 04:11:04;;;;;;;22.58;20.27;;;;;;;;;;4995938;28;20199;-89
2022/01/06 04:13:32;;;;;;;21.67;20.10;;;;;;;;;;4996286;28;20199;-88
2022/01/06 04:16:02;;;;;;;21.90;20.40;;;;;;;;;;4996264;28;20267;-89
2022/01/06 04:18:31;;;;;;;21.63;19.83;;;;;;;;;;4997930;28;20642;-89
2022/01/06 04:20:58;;;;;;;22.98;21.25;;;;;;;;;;4978252;28;20231;-89
2022/01/06 04:23:25;;;;;;;22.65;20.80;;;;;;;;;;4995514;28;20221;-88
2022/01/06 04:25:53;;;;;;;21.58;19.60;;;;;;;;;;4979254;28;20203;-88
2022/01/06 04:28:20;;;;;;;21.33;19.75;;;;;;;;;;4996480;28;20207;-89
2022/01/06 04:30:47;;;;;;;21.45;19.92;;;;;;;;;;4996305;28;20202;-89
2022/01/06 04:33:15;;;;;;;20.95;19.55;;;;;;;;;;4996111;28;20214;-88
2022/01/06 04:35:44;;;;;;;21.50;19.50;;;;;;;;;;4996095;28;20638;-88
2022/01/06 04:38:11;;;;;;;21.50;20.08;;;;;;;;;;4996484;28;20194;-87
2022/01/06 04:40:39;;;;;;;22.35;20.73;;;;;;;;;;4995718;28;20188;-89
2022/01/06 04:43:07;;;;;;;22.60;20.70;;;;;;;;;;4995351;28;20190;-89
2022/01/06 04:45:35;;;;;;;21.15;19.45;;;;;;;;;;4995480;28;20192;-89
2022/01/06 04:48:02;;;;;;;20.42;18.80;;;;;;;;;;4979193;28;20700;-89
2022/01/06 04:50:29;;;;;;;20.92;19.40;;;;;;;;;;4996015;28;20202;-89
2022/01/06 04:52:59;;;;;;;21.65;20.00;;;;;;;;;;4979125;28;20199;-88
2022/01/06 04:55:26;;;;;;;21.67;19.65;;;;;;;;;;4995641;28;20214;-89
2022/01/06 04:57:53;;;;;;;22.90;20.23;;;;;;;;;;4996284;28;20651;-88
2022/01/06 05:00:21;;;;;;;21.30;19.58;;;;;;;;;;4996010;28;20223;-88
2022/01/06 05:02:48;;;;;;;20.50;19.00;;;;;;;;;;4995679;28;20203;-88
2022/01/06 05:05:16;;;;;;;21.73;20.00;;;;;;;;;;4995896;28;20231;-88
2022/01/06 05:07:44;;;;;;;21.45;19.70;;;;;;;;;;4997483;28;20241;-88
2022/01/06 05:10:13;;;;;;;21.10;19.40;;;;;;;;;;4995779;28;20250;-89
2022/01/06 05:12:41;;;;;;;22.38;20.65;;;;;;;;;;5004971;28;20199;-89
2022/01/06 05:15:08;;;;;;;20.50;19.10;;;;;;;;;;5003764;28;20195;-88
2022/01/06 05:17:36;;;;;;;22.30;20.20;;;;;;;;;;4996271;28;20206;-88
2022/01/06 05:20:03;;;;;;;22.00;20.10;;;;;;;;;;4978681;28;20226;-89
2022/01/06 05:22:31;;;;;;;22.10;20.17;;;;;;;;;;4997203;28;20186;-88
2022/01/06 05:24:59;;;;;;;21.83;20.02;;;;;;;;;;4995649;28;20231;-89
2022/01/06 05:27:27;;;;;;;24.60;22.67;;;;;;;;;;4995800;28;20190;-88
2022/01/06 05:29:55;;;;;;;23.25;21.35;;;;;;;;;;4995325;28;20260;-89
2022/01/06 05:32:22;;;;;;;23.40;21.80;;;;;;;;;;4995308;28;20245;-89
2022/01/06 05:34:50;;;;;;;22.23;20.23;;;;;;;;;;4995602;28;20190;-87
2022/01/06 05:37:17;;;;;;;21.95;20.45;;;;;;;;;;4995728;28;20195;-88
2022/01/06 05:39:44;;;;;;;22.38;20.67;;;;;;;;;;4978384;28;20231;-89
2022/01/06 05:42:13;;;;;;;21.83;20.02;;;;;;;;;;4994953;28;20219;-89
2022/01/06 05:44:42;;;;;;;21.30;19.75;;;;;;;;;;4995282;28;20645;-89
2022/01/06 05:47:10;;;;;;;21.05;19.45;;;;;;;;;;4978530;28;20565;-89
2022/01/06 05:49:37;;;;;;;21.58;20.10;;;;;;;;;;4995620;28;20225;-89
2022/01/06 05:52:06;;;;;;;23.60;20.42;;;;;;;;;;4995519;28;20209;-89
2022/01/06 05:54:33;;;;;;;21.27;19.52;;;;;;;;;;4995148;28;20588;-89
2022/01/06 05:57:01;;;;;;;21.17;19.48;;;;;;;;;;4994786;28;20210;-89
2022/01/06 05:59:29;;;;;;;20.98;19.50;;;;;;;;;;4977665;28;20276;-89
2022/01/06 06:01:58;;;;;;;22.80;20.77;;;;;;;;;;4995684;28;20275;-89
2022/01/06 06:04:25;;;;;;;22.40;20.20;;;;;;;;;;4995073;28;20243;-89
2022/01/06 06:06:52;;;;;;;22.63;20.42;;;;;;;;;;4995260;28;20191;-89
2022/01/06 06:09:21;;;;;;;23.60;21.38;;;;;;;;;;4995357;28;20210;-89
2022/01/06 06:11:48;;;;;;;21.95;20.45;;;;;;;;;;4995533;28;20536;-89
2022/01/06 06:14:15;;;;;;;22.35;20.75;;;;;;;;;;4994447;28;20210;-89
2022/01/06 06:16:43;;;;;;;23.30;21.13;;;;;;;;;;4995020;28;20183;-88
2022/01/06 06:19:12;;;;;;;22.45;20.52;;;;;;;;;;4994406;28;20215;-88
2022/01/06 06:21:39;;;;;;;22.27;20.33;;;;;;;;;;4962987;28;20679;-89
2022/01/06 06:24:07;;;;;;;21.70;19.80;;;;;;;;;;4997480;28;20222;-89
2022/01/06 06:26:50;;;;;;;22.67;20.98;;;;;;;;;;5002280;28;20202;-89
2022/01/06 06:29:17;;;;;;;23.33;21.45;;;;;;;;;;4997646;28;20190;-89
2022/01/06 06:31:44;;;;;;;21.90;20.30;;;;;;;;;;4997897;28;20213;-89
2022/01/06 06:34:13;;;;;;;21.85;20.23;;;;;;;;;;4997507;28;20195;-88
2022/01/06 06:36:40;;;;;;;22.75;21.00;;;;;;;;;;4997606;28;20194;-88
2022/01/06 06:39:08;;;;;;;22.70;20.75;;;;;;;;;;4997484;28;20223;-89
2022/01/06 06:41:36;;;;;;;22.05;20.55;;;;;;;;;;4997325;28;20241;-88
2022/01/06 06:44:03;;;;;;;21.48;19.98;;;;;;;;;;4997499;28;20198;-89
2022/01/06 06:46:30;;;;;;;22.48;20.75;;;;;;;;;;4997579;28;20197;-89
2022/01/06 06:48:58;;;;;;;23.23;21.38;;;;;;;;;;4997051;28;20194;-89
2022/01/06 06:51:26;;;;;;;22.80;21.15;;;;;;;;;;4997400;28;20608;-89
2022/01/06 06:53:54;;;;;;;22.95;21.10;;;;;;;;;;4997241;28;20207;-89
2022/01/06 06:56:21;;;;;;;22.33;20.50;;;;;;;;;;4997192;28;20207;-89
2022/01/06 06:58:48;;;;;;;23.70;21.90;;;;;;;;;;4997969;28;20195;-89
2022/01/06 07:01:16;;;;;;;23.60;21.45;;;;;;;;;;4999437;28;20265;-89
2022/01/06 07:03:43;;;;;;;23.08;21.05;;;;;;;;;;4997677;28;20704;-88
2022/01/06 07:06:11;;;;;;;25.85;21.50;;;;;;;;;;4996734;28;20238;-89
2022/01/06 07:08:40;;;;;;;23.33;21.38;;;;;;;;;;4997021;28;20214;-89
2022/01/06 07:11:07;;;;;;;24.00;21.80;;;;;;;;;;4979503;28;20210;-88
2022/01/06 07:13:35;;;;;;;24.27;21.92;;;;;;;;;;4996677;28;20202;-89
2022/01/06 07:16:02;;;;;;;24.90;22.63;;;;;;;;;;4996953;28;20214;-89
2022/01/06 07:18:29;;;;;;;23.48;21.15;;;;;;;;;;4996979;28;20225;-89
2022/01/06 07:20:57;;;;;;;23.02;20.73;;;;;;;;;;4996882;28;20266;-89
2022/01/06 07:23:25;;;;;;;25.13;22.73;;;;;;;;;;4996362;28;20245;-89
2022/01/06 07:25:53;;;;;;;24.38;22.35;;;;;;;;;;4997012;28;20246;-89
2022/01/06 07:28:21;;;;;;;24.15;22.17;;;;;;;;;;4996395;28;20187;-87
2022/01/06 07:30:48;;;;;;;25.90;23.45;;;;;;;;;;4995956;28;20191;-85
2022/01/06 07:33:15;;;;;;;23.98;22.00;;;;;;;;;;4994914;28;20192;-84
2022/01/06 07:35:43;;;;;;;24.70;22.48;;;;;;;;;;4978148;28;20217;-85
2022/01/06 07:38:10;;;;;;;24.75;22.35;;;;;;;;;;4995768;28;20274;-85
2022/01/06 07:40:37;;;;;;;24.95;23.15;;;;;;;;;;4995691;28;20747;-85
2022/01/06 07:43:07;;;;;;;25.65;22.85;;;;;;;;;;4996089;28;20198;-85
2022/01/06 07:45:34;;;;;;;26.25;23.70;;;;;;;;;;4995468;28;20300;-85
2022/01/06 07:48:02;;;;;;;24.13;22.25;;;;;;;;;;4978231;28;20253;-85
2022/01/06 07:50:31;;;;;;;24.25;21.92;;;;;;;;;;4978967;28;20270;-86
2022/01/06 07:52:58;;;;;;;25.23;23.10;;;;;;;;;;4995520;28;20195;-86
2022/01/06 07:55:26;;;;;;;26.55;24.27;;;;;;;;;;4995260;28;20190;-84
2022/01/06 07:57:54;;;;;;;26.33;24.25;;;;;;;;;;4995611;28;20266;-86
2022/01/06 08:00:23;;;;;;;25.65;23.20;;;;;;;;;;4995096;28;20581;-85
2022/01/06 08:02:51;;;;;;;27.50;25.05;;;;;;;;;;4995560;28;20195;-86
2022/01/06 08:05:20;;;;;;;29.80;27.10;;;;;;;;;;4995162;28;20238;-86
2022/01/06 08:07:47;;;;;;;30.30;27.42;;;;;;;;;;4995068;28;20211;-86
2022/01/06 08:10:15;;;;;;;27.70;24.88;;;;;;;;;;4994844;28;20258;-85
2022/01/06 08:12:42;;;;;;;27.58;25.27;;;;;;;;;;4995105;28;20190;-86
2022/01/06 08:15:10;;;;;;;27.77;25.05;;;;;;;;;;4995613;28;20195;-86
2022/01/06 08:17:39;;;;;;;27.75;25.45;;;;;;;;;;4995286;28;20556;-86
2022/01/06 08:20:07;;;;;;;27.38;25.17;;;;;;;;;;4995189;28;20218;-86
2022/01/06 08:22:36;;;;;;;32.35;29.00;;;;;;;;;;4995214;28;20211;-86
2022/01/06 08:25:04;;;;;;;30.42;27.50;;;;;;;;;;4995008;28;20298;-86
2022/01/06 08:27:31;;;;;;;28.15;25.08;;;;;;;;;;4995222;28;20199;-84
2022/01/06 08:29:58;;;;;;;27.98;24.75;;;;;;;;;;4994982;28;20318;-85
2022/01/06 08:32:26;;;;;;;31.70;27.73;;;;;;;;;;4994710;28;20198;-85
2022/01/06 08:34:54;;;;;;;31.10;23.20;;;;;;;;;;4994969;28;20599;-85
2022/01/06 08:37:22;;;;;;;27.77;25.02;;;;;;;;;;4994963;28;20195;-86
2022/01/06 08:39:49;;;;;;;25.40;22.88;;;;;;;;;;4994783;28;20237;-85
2022/01/06 08:42:17;;;;;;;26.52;24.05;;;;;;;;;;4994668;28;20193;-86
2022/01/06 08:44:44;;;;;;;31.00;26.27;;;;;;;;;;4994138;28;20198;-85
2022/01/06 08:47:11;;;;;;;27.75;24.77;;;;;;;;;;4994742;28;20249;-85
2022/01/06 08:49:41;;;;;;;27.92;24.70;;;;;;;;;;4995047;28;20243;-85
2022/01/06 08:52:10;;;;;;;25.90;23.50;;;;;;;;;;4994277;28;20345;-85
2022/01/06 08:54:37;;;;;;;27.17;24.85;;;;;;;;;;4993971;28;20550;-84
2022/01/06 08:57:05;;;;;;;26.45;24.02;;;;;;;;;;4993922;28;20210;-89
2022/01/06 08:59:32;;;;;;;27.30;24.85;;;;;;;;;;4993542;28;20196;-82
2022/01/06 09:01:59;;;;;;;34.25;24.88;;;;;;;;;;4994092;28;20213;-83
2022/01/06 09:04:27;;;;;;;26.52;24.20;;;;;;;;;;4993689;28;20273;-83
2022/01/06 09:06:54;;;;;;;25.83;23.35;;;;;;;;;;4996238;28;20196;-84
2022/01/06 09:09:23;;;;;;;26.80;24.42;;;;;;;;;;4995718;28;20187;-84
2022/01/06 09:11:50;;;;;;;31.10;25.90;;;;;;;;;;4994132;28;20250;-84
2022/01/06 09:14:18;;;;;;;26.73;24.00;;;;;;;;;;4993938;28;20201;-84
2022/01/06 09:16:45;;;;;;;32.97;26.10;;;;;;;;;;4993476;28;20196;-83
2022/01/06 09:19:13;;;;;;;26.95;24.45;;;;;;;;;;4993513;28;20198;-83
2022/01/06 09:21:40;;;;;;;26.80;24.25;;;;;;;;;;4994040;28;20219;-84
2022/01/06 09:24:08;;;;;;;27.25;24.70;;;;;;;;;;4993644;28;20225;-84
2022/01/06 09:26:37;;;;;;;27.00;24.20;;;;;;;;;;4993445;28;20199;-83
2022/01/06 09:29:05;;;;;;;29.10;24.38;;;;;;;;;;4993491;28;20206;-83
2022/01/06 09:31:34;;;;;;;26.75;24.15;;;;;;;;;;4993389;28;20600;-83
2022/01/06 09:34:02;;;;;;;29.17;26.08;;;;;;;;;;4993426;28;20195;-84
2022/01/06 09:36:29;;;;;;;28.15;25.05;;;;;;;;;;4993743;28;20191;-84
2022/01/06 09:38:56;;;;;;;29.58;26.70;;;;;;;;;;4999725;28;20640;-80
2022/01/06 09:41:26;;;;;;;29.13;26.30;;;;;;;;;;5013099;28;20321;-84
2022/01/06 09:43:55;;;;;;;30.17;25.25;;;;;;;;;;5013272;28;20206;-83
2022/01/06 09:46:23;;;;;;;27.60;24.90;;;;;;;;;;5013922;28;20202;-84
2022/01/06 09:48:51;;;;;;;28.30;25.35;;;;;;;;;;5013004;28;20653;-83
2022/01/06 09:51:19;;;;;;;28.42;24.35;;;;;;;;;;5013419;28;20206;-84
2022/01/06 09:53:48;;;;;;;27.00;24.50;;;;;;;;;;5013242;28;20209;-84
2022/01/06 09:56:16;;;;;;;39.90;27.52;;;;;;;;;;5014203;28;20207;-84
2022/01/06 09:58:43;;;;;;;26.73;24.33;;;;;;;;;;5016833;28;20637;-84
2022/01/06 10:01:12;;;;;;;26.98;24.15;;;;;;;;;;5016625;28;20222;-84
2022/01/06 10:03:41;;;;;;;25.33;23.17;;;;;;;;;;5016852;28;20195;-84
2022/01/06 10:06:13;;;;;;;25.88;23.65;;;;;;;;;;5016476;28;20596;-84
2022/01/06 10:08:41;;;;;;;31.38;24.98;;;;;;;;;;5016552;28;20194;-84
2022/01/06 10:11:15;;;;;;;28.95;25.50;;;;;;;;;;5016716;28;20198;-83
2022/01/06 10:13:43;;;;;;;26.70;24.10;;;;;;;;;;5016488;28;20242;-84
2022/01/06 10:16:17;;;;;;;25.52;23.20;;;;;;;;;;5017298;28;20197;-84
2022/01/06 10:18:54;;;;;;;26.35;22.92;;;;;;;;;;5021124;28;20203;-84
2022/01/06 10:21:22;;;;;;;25.23;23.30;;;;;;;;;;5022538;28;20257;-83
2022/01/06 10:23:59;;;;;;;25.85;23.08;;;;;;;;;;5021463;28;20219;-84
2022/01/06 10:26:26;;;;;;;25.88;23.60;;;;;;;;;;5019601;28;20189;-84
2022/01/06 10:28:54;;;;;;;25.27;23.00;;;;;;;;;;5018110;28;20194;-84
2022/01/06 10:31:25;;;;;;;25.42;23.02;;;;;;;;;;5000332;28;20210;-84
2022/01/06 10:33:53;;;;;;;25.08;22.70;;;;;;;;;;5017269;28;20567;-84
2022/01/06 10:36:20;;;;;;;23.33;21.38;;;;;;;;;;5016705;28;20237;-84
2022/01/06 10:38:54;;;;;;;25.55;23.40;;;;;;;;;;5016295;28;20210;-84
2022/01/06 10:41:21;;;;;;;24.27;22.48;;;;;;;;;;5016443;28;20221;-84
2022/01/06 10:43:53;;;;;;;23.58;21.50;;;;;;;;;;5016243;28;20535;-84
2022/01/06 10:46:32;;;;;;;23.80;21.50;;;;;;;;;;5016338;28;20190;-84
2022/01/06 10:49:00;;;;;;;24.88;22.48;;;;;;;;;;5016048;28;20696;-84
2022/01/06 10:51:35;;;;;;;24.63;22.60;;;;;;;;;;5016044;28;20254;-84
2022/01/06 10:54:03;;;;;;;23.95;22.15;;;;;;;;;;5015956;28;20194;-84
2022/01/06 10:56:30;;;;;;;25.00;22.67;;;;;;;;;;5016340;28;20198;-84
2022/01/06 10:58:58;;;;;;;22.08;20.38;;;;;;;;;;5015890;28;20192;-84
2022/01/06 11:01:26;;;;;;;27.35;22.60;;;;;;;;;;5015438;28;20663;-83
2022/01/06 11:03:54;;;;;;;24.58;22.35;;;;;;;;;;5015805;28;20235;-84
2022/01/06 11:06:22;;;;;;;25.83;23.25;;;;;;;;;;5015462;28;20320;-84
2022/01/06 11:08:51;;;;;;;25.27;22.98;;;;;;;;;;5016635;28;20193;-84
2022/01/06 11:11:44;;;;;;;25.25;22.90;;;;;;;;;;5017341;28;20190;-83
2022/01/06 11:14:15;;;;;;;25.83;22.08;;;;;;;;;;5018490;28;20202;-89
2022/01/06 11:16:43;;;;;;;24.23;21.88;;;;;;;;;;5016821;28;20206;-86
2022/01/06 11:19:13;;;;;;;24.15;21.95;;;;;;;;;;5017080;28;20222;-85
2022/01/06 11:21:41;;;;;;;24.20;21.85;;;;;;;;;;5019385;28;20818;-87
2022/01/06 11:24:13;;;;;;;24.60;21.95;;;;;;;;;;5018685;28;20630;-89
2022/01/06 11:26:40;;;;;;;37.90;22.23;;;;;;;;;;5018184;28;20210;-90
2022/01/06 11:29:08;;;;;;;24.88;22.45;;;;;;;;;;5018951;28;20198;-89
2022/01/06 11:31:40;;;;;;;25.75;23.17;;;;;;;;;;5017554;28;20191;-88
2022/01/06 11:34:16;;;;;;;26.42;22.55;;;;;;;;;;5018966;28;20205;-89
2022/01/06 11:36:44;;;;;;;34.42;23.00;;;;;;;;;;5019455;28;20189;-89
2022/01/06 11:39:21;;;;;;;24.67;22.50;;;;;;;;;;5018993;28;20198;-89
2022/01/06 11:41:49;;;;;;;25.55;22.88;;;;;;;;;;5018212;28;20707;-89
2022/01/06 11:44:17;;;;;;;33.90;23.70;;;;;;;;;;5017131;28;20206;-90
2022/01/06 11:46:46;;;;;;;25.95;23.15;;;;;;;;;;5018371;28;20297;-89
2022/01/06 11:49:15;;;;;;;27.65;24.70;;;;;;;;;;5019714;28;20217;-88
2022/01/06 11:51:43;;;;;;;31.02;27.00;;;;;;;;;;5018362;28;20198;-89
2022/01/06 11:54:15;;;;;;;25.75;23.30;;;;;;;;;;5017438;28;20191;-90
2022/01/06 11:56:46;;;;;;;25.45;22.92;;;;;;;;;;5016310;28;20202;-88
2022/01/06 11:59:13;;;;;;;30.30;24.67;;;;;;;;;;5016810;28;20188;-88
2022/01/06 12:01:48;;;;;;;27.90;24.90;;;;;;;;;;5018139;28;20231;-88
2022/01/06 12:04:18;;;;;;;27.55;24.70;;;;;;;;;;5017109;28;20195;-89
2022/01/06 12:06:46;;;;;;;27.83;24.70;;;;;;;;;;5017768;28;20199;-90
2022/01/06 12:09:16;;;;;;;27.77;24.67;;;;;;;;;;5017859;28;20529;-91
2022/01/06 12:11:44;;;;;;;28.90;25.98;;;;;;;;;;5016377;28;20199;-90
2022/01/06 12:14:12;;;;;;;28.30;25.35;;;;;;;;;;5013501;28;20215;-91
2022/01/06 12:16:41;;;;;;;29.05;26.35;;;;;;;;;;4997165;28;20279;-90
2022/01/06 12:19:14;;;;;;;29.23;26.20;;;;;;;;;;4995647;28;20203;-92
2022/01/06 12:21:43;;;;;;;27.05;24.55;;;;;;;;;;4977318;28;20215;-95
2022/01/06 12:24:12;;;;;;;29.30;25.40;;;;;;;;;;4977093;28;20220;-93
2022/01/06 12:26:41;;;;;;;29.25;26.75;;;;;;;;;;4959101;28;20206;-86
2022/01/06 12:29:14;;;;;;;30.10;26.67;;;;;;;;;;4975547;28;20201;-86
2022/01/06 12:31:43;;;;;;;29.83;26.85;;;;;;;;;;4975775;28;20214;-88
2022/01/06 12:34:14;;;;;;;28.27;25.20;;;;;;;;;;4976212;28;20230;-88
2022/01/06 12:36:45;;;;;;;26.45;23.95;;;;;;;;;;4975640;28;20267;-87
2022/01/06 12:39:14;;;;;;;26.15;23.58;;;;;;;;;;4978132;28;20200;-88
2022/01/06 12:41:43;;;;;;;26.63;23.42;;;;;;;;;;4976425;28;20231;-88
2022/01/06 12:44:13;;;;;;;27.08;24.27;;;;;;;;;;4977892;28;20243;-88
2022/01/06 12:46:42;;;;;;;26.88;23.90;;;;;;;;;;4977409;28;20258;-88
2022/01/06 12:49:12;;;;;;;26.45;23.88;;;;;;;;;;4979988;28;20207;-88
2022/01/06 12:51:41;;;;;;;30.92;24.70;;;;;;;;;;4981192;28;20354;-87
2022/01/06 12:54:13;;;;;;;25.05;22.95;;;;;;;;;;4983644;28;20196;-88
2022/01/06 12:56:43;;;;;;;23.77;21.55;;;;;;;;;;4970320;28;20204;-87
2022/01/06 12:59:21;;;;;;;22.10;20.17;;;;;;;;;;4978574;28;20263;-86
2022/01/06 13:01:53;;;;;;;24.17;21.83;;;;;;;;;;4977924;28;20220;-84
2022/01/06 13:04:24;;;;;;;24.75;22.90;;;;;;;;;;4978565;28;20239;-91
2022/01/06 13:06:52;;;;;;;26.40;22.85;;;;;;;;;;4980071;28;20205;-93
2022/01/06 13:09:22;;;;;;;23.63;21.70;;;;;;;;;;4976860;28;20208;-92
2022/01/06 13:11:52;;;;;;;26.40;22.90;;;;;;;;;;4978791;28;20194;-87
2022/01/06 13:14:27;;;;;;;25.70;22.58;;;;;;;;;;4978488;28;20258;-91
2022/01/06 13:16:57;;;;;;;23.63;21.85;;;;;;;;;;4978394;28;20679;-94
2022/01/06 13:19:27;;;;;;;32.63;23.05;;;;;;;;;;4977490;28;20196;-91
2022/01/06 13:21:59;;;;;;;24.27;22.00;;;;;;;;;;4977324;28;20233;-90
2022/01/06 13:24:31;;;;;;;24.65;22.55;;;;;;;;;;4976189;28;20224;-90
2022/01/06 13:26:59;;;;;;;24.08;21.77;;;;;;;;;;4959166;28;20207;-90
2022/01/06 13:29:28;;;;;;;24.52;22.63;;;;;;;;;;4977455;28;20204;-88
2022/01/06 13:32:02;;;;;;;29.15;23.77;;;;;;;;;;4987215;28;20200;-96
2022/01/06 13:34:30;;;;;;;24.90;22.40;;;;;;;;;;4983721;28;20217;-94
2022/01/06 13:37:10;;;;;;;27.65;22.70;;;;;;;;;;4991312;28;20207;-95
2022/01/06 13:39:40;;;;;;;26.70;23.65;;;;;;;;;;4986213;28;20199;-96
2022/01/06 13:42:09;;;;;;;26.10;24.00;;;;;;;;;;4982187;28;20690;-96
2022/01/06 13:44:37;;;;;;;30.67;24.38;;;;;;;;;;4981232;28;20204;-85
2022/01/06 13:47:19;;;;;;;27.00;24.27;;;;;;;;;;4978699;28;20279;-96
2022/01/06 13:52:32;;;;;;;28.55;25.48;;;;;;;;;;4980553;28;20203;-84
2022/01/06 13:55:01;;;;;;;26.02;23.95;;;;;;;;;;4978269;28;20236;-85
2022/01/06 13:57:28;;;;;;;28.17;24.92;;;;;;;;;;4979088;28;20192;-85
2022/01/06 13:59:56;;;;;;;26.30;23.90;;;;;;;;;;4978073;28;20595;-84
2022/01/06 14:02:24;;;;;;;25.65;23.40;;;;;;;;;;4978056;28;20311;-84
2022/01/06 14:04:51;;;;;;;24.88;22.85;;;;;;;;;;4978967;28;20265;-84
2022/01/06 14:07:18;;;;;;;25.00;22.90;;;;;;;;;;4979580;28;20204;-84
2022/01/06 14:09:47;;;;;;;25.75;23.23;;;;;;;;;;4978669;28;20212;-84
2022/01/06 14:12:16;;;;;;;24.77;22.67;;;;;;;;;;4980044;28;20915;-84
2022/01/06 14:14:43;;;;;;;25.42;22.38;;;;;;;;;;4982991;28;20537;-84
2022/01/06 14:17:11;;;;;;;26.23;23.75;;;;;;;;;;4981035;28;20195;-85
2022/01/06 14:19:40;;;;;;;26.10;23.67;;;;;;;;;;4962678;28;20659;-85
2022/01/06 14:22:08;;;;;;;24.67;22.30;;;;;;;;;;4961002;28;20283;-84
2022/01/06 14:24:35;;;;;;;26.17;23.77;;;;;;;;;;4977934;28;20253;-84
2022/01/06 14:27:04;;;;;;;24.13;22.08;;;;;;;;;;4961297;28;20205;-82
2022/01/06 14:29:33;;;;;;;26.40;23.27;;;;;;;;;;4978239;28;20192;-85
2022/01/06 14:32:01;;;;;;;27.30;24.60;;;;;;;;;;4977975;28;20527;-81